Terminal Aerodrome Forecast
Issued by NWS Twin Cities, MN

Home | Current Version | Previous Version | Graphics & Text | Print | Product List | Glossary On
Versions: 1 2 3 4 5 6 7 8 9 10 11 12 13 14 15 16 17 18 19 20
053
FTUS43 KMPX 061323 AAA
TAFEAU
TAF AMD
KEAU 061323Z 0613/0712 24006KT P6SM OVC012
     FM061500 22005KT P6SM OVC009
     FM061800 21008KT P6SM SCT100 BKN200
     FM070000 21011KT P6SM OVC070 WS020/26040KT=

USA.gov is the U.S. government's official web portal to all federal, state and local government web resources and services.